^^
Meteo Knjazevac Station Historical Data
Daily Summary for October 7, 2021 Units:  English    Metric   Both
Daily Weekly Monthly Yearly Custom
  High: Low: Average:
Temperature: 56.3 °F 50.7 °F 52.9 °F
Dew Point: 51.2 °F 46.1 °F 48.4 °F
Humidity: 90% 77% 85%
Wind Speed: 8mph 0mph 3.6mph
Wind Gust: 22mph - -
Wind- - East
Pressure: 30.22 in 30.16 in -
Precipitation: 0.03 in    
Historical Graphs
 
 
Tabular Data for October 7, 2021
Time Temperature Dew Point Pressure Wind Wind Speed Wind Gust Humidity Rainfall Rate (Hourly) solar Conditions
00:00 52 °F 47 °F 30.19 in East 1 mph 2 mph 83% 0.00 in 0 W/m2
00:10 51.6 °F 46.6 °F 30.18 in Calm   2 mph 83% 0.00 in 0 W/m2
00:20 51.3 °F 46.6 °F 30.19 in NW 1 mph 2 mph 84% 0.00 in 0 W/m2
00:30 51.1 °F 46.4 °F 30.18 in North 1 mph 2 mph 84% 0.00 in 0 W/m2
00:40 51.1 °F 46.4 °F 30.18 in Calm   2 mph 84% 0.00 in 0 W/m2
00:50 50.8 °F 46.1 °F 30.19 in ENE 1 mph 3 mph 84% 0.00 in 0 W/m2
01:00 50.7 °F 46.1 °F 30.18 in NNE 3 mph 5 mph 84% 0.00 in 0 W/m2
01:10 51.1 °F 46.4 °F 30.18 in NE 1 mph 5 mph 84% 0.00 in 0 W/m2
01:20 51.1 °F 46.4 °F 30.19 in Calm   3 mph 84% 0.00 in 0 W/m2
01:30 50.9 °F 46.2 °F 30.18 in North 2 mph 5 mph 84% 0.00 in 0 W/m2
01:40 51.3 °F 46.6 °F 30.19 in NE 1 mph 7 mph 84% 0.00 in 0 W/m2
01:50 51.1 °F 46.5 °F 30.19 in Calm   3 mph 84% 0.00 in 0 W/m2
02:00 51.3 °F 46.6 °F 30.19 in Calm   2 mph 84% 0.00 in 0 W/m2
02:10 51.3 °F 46.6 °F 30.18 in Calm   5 mph 84% 0.00 in 0 W/m2
02:20 51.4 °F 46.8 °F 30.19 in East 1 mph 4 mph 84% 0.00 in 0 W/m2
02:30 51.3 °F 46.6 °F 30.19 in SE 1 mph 4 mph 84% 0.00 in 0 W/m2
02:40 51.4 °F 46.8 °F 30.19 in Calm   2 mph 84% 0.00 in 0 W/m2
02:50 51.6 °F 46.9 °F 30.18 in Calm   2 mph 84% 0.00 in 0 W/m2
03:00 51.7 °F 47.1 °F 30.18 in Calm   3 mph 84% 0.00 in 0 W/m2
03:10 51.8 °F 47.1 °F 30.18 in SSE 3 mph 5 mph 84% 0.00 in 0 W/m2
03:20 51.6 °F 46.9 °F 30.17 in East 2 mph 3 mph 84% 0.00 in 0 W/m2
03:30 51.7 °F 47.1 °F 30.17 in NNE 1 mph 2 mph 84% 0.00 in 0 W/m2
03:40 51.6 °F 46.9 °F 30.18 in South 2 mph 4 mph 84% 0.00 in 0 W/m2
03:50 51.4 °F 46.8 °F 30.18 in ESE 3 mph 5 mph 84% 0.00 in 0 W/m2
04:00 51.4 °F 47.1 °F 30.17 in NE 2 mph 6 mph 85% 0.00 in 0 W/m2
04:10 51.6 °F 47.3 °F 30.17 in NNE 2 mph 6 mph 85% 0.00 in 0 W/m2
04:20 52 °F 47.6 °F 30.17 in NE 3 mph 8 mph 85% 0.00 in 0 W/m2
04:30 51.8 °F 47.4 °F 30.17 in SSE 2 mph 6 mph 85% 0.00 in 0 W/m2
04:40 52 °F 47.6 °F 30.17 in North 2 mph 7 mph 85% 0.00 in 0 W/m2
04:50 52.3 °F 47.6 °F 30.17 in North 1 mph 8 mph 84% 0.00 in 0 W/m2
05:00 52.5 °F 47.8 °F 30.17 in North 3 mph 7 mph 84% 0.00 in 0 W/m2
05:10 52.7 °F 48 °F 30.17 in North 5 mph 10 mph 84% 0.00 in 0 W/m2
05:20 52.9 °F 48.2 °F 30.17 in North 5 mph 12 mph 84% 0.00 in 0 W/m2
05:30 52.9 °F 47.9 °F 30.17 in North 6 mph 13 mph 83% 0.00 in 0 W/m2
05:40 52.9 °F 47.9 °F 30.17 in North 6 mph 12 mph 83% 0.00 in 0 W/m2
05:50 52.9 °F 47.9 °F 30.17 in North 5 mph 10 mph 83% 0.00 in 0 W/m2
06:00 52.7 °F 48 °F 30.17 in North 5 mph 13 mph 84% 0.00 in 0 W/m2
06:10 52.7 °F 48 °F 30.16 in North 7 mph 14 mph 84% 0.00 in 0 W/m2
06:20 52.5 °F 47.8 °F 30.16 in North 6 mph 13 mph 84% 0.00 in 0 W/m2
06:30 52.3 °F 47.6 °F 30.16 in NNE 7 mph 14 mph 84% 0.00 in 0 W/m2
06:40 52.2 °F 47.8 °F 30.17 in North 8 mph 13 mph 85% 0.00 in 2 W/m2
06:50 52.2 °F 47.8 °F 30.17 in North 7 mph 13 mph 85% 0.00 in 7 W/m2
07:00 52 °F 47.6 °F 30.17 in North 5 mph 13 mph 85% 0.00 in 12 W/m2
07:10 52 °F 47.6 °F 30.18 in North 5 mph 13 mph 85% 0.00 in 19 W/m2
07:20 51.8 °F 47.4 °F 30.18 in North 6 mph 13 mph 85% 0.00 in 26 W/m2
07:30 51.8 °F 47.4 °F 30.19 in North 5 mph 12 mph 85% 0.00 in 29 W/m2
07:40 51.8 °F 47.4 °F 30.19 in North 6 mph 13 mph 85% 0.00 in 32 W/m2
07:50 51.8 °F 47.4 °F 30.19 in North 7 mph 14 mph 85% 0.00 in 42 W/m2
08:00 51.8 °F 47.7 °F 30.19 in North 6 mph 13 mph 86% 0.00 in 58 W/m2
08:10 51.8 °F 47.7 °F 30.19 in North 6 mph 13 mph 86% 0.00 in 72 W/m2
08:20 51.8 °F 47.7 °F 30.19 in North 5 mph 13 mph 86% 0.00 in 96 W/m2
08:30 51.8 °F 47.7 °F 30.19 in North 5 mph 12 mph 86% 0.00 in 126 W/m2
08:40 52 °F 47.9 °F 30.19 in North 8 mph 12 mph 86% 0.00 in 141 W/m2
08:50 52.2 °F 48.1 °F 30.19 in North 6 mph 13 mph 86% 0.00 in 178 W/m2
09:00 52.3 °F 47.9 °F 30.19 in North 5 mph 13 mph 85% 0.00 in 180 W/m2
09:10 52.3 °F 48 °F 30.19 in North 5 mph 12 mph 85% 0.00 in 168 W/m2
09:20 52.5 °F 48.1 °F 30.19 in North 5 mph 12 mph 85% 0.00 in 185 W/m2
09:30 52.7 °F 48.3 °F 30.19 in North 6 mph 14 mph 85% 0.00 in 170 W/m2
09:40 52.5 °F 48.2 °F 30.19 in North 6 mph 14 mph 85% 0.00 in 172 W/m2
09:50 52.7 °F 48.3 °F 30.20 in North 5 mph 12 mph 85% 0.00 in 123 W/m2
10:00 52.7 °F 48.3 °F 30.20 in North 5 mph 14 mph 85% 0.00 in 112 W/m2
10:10 52.7 °F 48.3 °F 30.20 in North 6 mph 12 mph 85% 0.00 in 113 W/m2
10:20 52.7 °F 48.3 °F 30.20 in North 6 mph 12 mph 85% 0.00 in 106 W/m2
10:30 52.5 °F 48.2 °F 30.20 in North 5 mph 14 mph 85% 0.00 in 127 W/m2
10:40 52.5 °F 48.1 °F 30.20 in North 8 mph 13 mph 85% 0.00 in 103 W/m2
10:50 52.5 °F 48.1 °F 30.20 in North 5 mph 13 mph 85% 0.00 in 141 W/m2
11:00 52.7 °F 48.3 °F 30.20 in North 7 mph 14 mph 85% 0.00 in 158 W/m2
11:10 52.7 °F 48.3 °F 30.20 in North 5 mph 15 mph 85% 0.00 in 120 W/m2
11:20 52.7 °F 48 °F 30.19 in North 6 mph 13 mph 84% 0.00 in 103 W/m2
11:30 52.7 °F 48 °F 30.19 in North 6 mph 14 mph 84% 0.00 in 106 W/m2
11:40 53.1 °F 48.4 °F 30.19 in North 5 mph 14 mph 84% 0.00 in 138 W/m2
11:50 53.4 °F 48.7 °F 30.19 in North 7 mph 13 mph 84% 0.00 in 162 W/m2
12:00 53.9 °F 48.9 °F 30.19 in North 2 mph 12 mph 83% 0.00 in 126 W/m2
12:10 54.3 °F 48.6 °F 30.19 in ESE 3 mph 9 mph 81% 0.00 in 106 W/m2
12:20 54.9 °F 48.5 °F 30.19 in NE 2 mph 14 mph 79% 0.00 in 120 W/m2
12:30 55.2 °F 48.5 °F 30.19 in NE 2 mph 8 mph 78% 0.00 in 100 W/m2
12:40 55.4 °F 48.3 °F 30.19 in East 6 mph 14 mph 77% 0.00 in 119 W/m2
12:50 55.4 °F 48.7 °F 30.19 in East 6 mph 15 mph 78% 0.00 in 105 W/m2
13:00 55.6 °F 48.5 °F 30.18 in ENE 5 mph 21 mph 77% 0.00 in 124 W/m2
13:10 55.8 °F 49 °F 30.18 in East 5 mph 22 mph 78% 0.00 in 117 W/m2
13:20 55.9 °F 49.2 °F 30.18 in NE 3 mph 17 mph 78% 0.00 in 103 W/m2
13:30 56.1 °F 49.4 °F 30.17 in ENE 2 mph 12 mph 78% 0.00 in 112 W/m2
13:40 56.1 °F 50 °F 30.17 in NNE 3 mph 12 mph 80% 0.00 in 121 W/m2
13:50 56.3 °F 50.2 °F 30.17 in NW 2 mph 8 mph 80% 0.00 in 117 W/m2
14:00 56.3 °F 49.9 °F 30.17 in NNE 1 mph 10 mph 79% 0.00 in 108 W/m2
14:10 56.3 °F 50.2 °F 30.17 in NNE 2 mph 9 mph 80% 0.00 in 93 W/m2
14:20 56.3 °F 50.2 °F 30.17 in NNE 2 mph 10 mph 80% 0.00 in 100 W/m2
14:30 56.3 °F 50.2 °F 30.17 in NNE 5 mph 12 mph 80% 0.00 in 79 W/m2
14:40 56.1 °F 50.4 °F 30.17 in North 3 mph 8 mph 81% 0.00 in 76 W/m2
14:50 55.9 °F 51.2 °F 30.17 in NNE 2 mph 7 mph 84% 0.00 in 83 W/m2
15:00 55.6 °F 51.1 °F 30.17 in NNE 5 mph 7 mph 85% 0.00 in 77 W/m2
15:10 55.2 °F 50.8 °F 30.18 in North 3 mph 9 mph 85% 0.00 in 64 W/m2
15:20 55 °F 50.6 °F 30.18 in North 3 mph 9 mph 85% 0.00 in 77 W/m2
15:30 54.9 °F 50.8 °F 30.17 in North 5 mph 9 mph 86% 0.00 in 75 W/m2
15:40 54.7 °F 51.2 °F 30.18 in North 1 mph 7 mph 88% 0.00 in 33 W/m2
15:50 54.3 °F 50.8 °F 30.18 in North 5 mph 8 mph 88% 0.00 in 26 W/m2
16:00 54.1 °F 50.7 °F 30.19 in North 3 mph 10 mph 88% 0.00 in 31 W/m2
16:10 54 °F 50.8 °F 30.19 in North 5 mph 9 mph 89% 0.01 in 42 W/m2
16:20 54 °F 50.8 °F 30.19 in NNE 2 mph 6 mph 89% 0.00 in 42 W/m2
16:30 53.8 °F 50.9 °F 30.19 in North 6 mph 9 mph 90% 0.00 in 37 W/m2
16:40 53.6 °F 50.7 °F 30.19 in NNE 2 mph 9 mph 90% 0.00 in 27 W/m2
16:50 53.4 °F 50.6 °F 30.19 in NW 2 mph 6 mph 90% 0.00 in 26 W/m2
17:00 53.3 °F 50.4 °F 30.19 in North 2 mph 8 mph 90% 0.00 in 16 W/m2
17:10 53.2 °F 50.4 °F 30.19 in North 3 mph 8 mph 90% 0.00 in 13 W/m2
17:20 53.2 °F 50.4 °F 30.19 in North 6 mph 9 mph 90% 0.00 in 14 W/m2
17:30 53.1 °F 50.2 °F 30.19 in North 5 mph 9 mph 90% 0.00 in 6 W/m2
17:40 53.1 °F 50.2 °F 30.19 in North 5 mph 8 mph 90% 0.00 in 6 W/m2
17:50 52.9 °F 49.7 °F 30.19 in North 3 mph 8 mph 89% 0.00 in 4 W/m2
18:00 52.9 °F 49.4 °F 30.19 in North 2 mph 8 mph 88% 0.00 in 2 W/m2
18:10 52.9 °F 49.4 °F 30.20 in North 3 mph 9 mph 88% 0.00 in 0 W/m2
18:20 52.9 °F 48.8 °F 30.20 in North 5 mph 9 mph 86% 0.00 in 0 W/m2
18:30 52.9 °F 49.4 °F 30.20 in NNE 2 mph 9 mph 88% 0.00 in 0 W/m2
18:40 52.9 °F 48.8 °F 30.20 in North 3 mph 9 mph 86% 0.00 in 0 W/m2
18:50 53.1 °F 49 °F 30.21 in North 3 mph 6 mph 86% 0.00 in 0 W/m2
19:00 53.1 °F 49 °F 30.21 in North 5 mph 8 mph 86% 0.00 in 0 W/m2
19:10 53.1 °F 49 °F 30.21 in North 3 mph 6 mph 86% 0.00 in 0 W/m2
19:20 53.2 °F 48.8 °F 30.21 in NNE 2 mph 7 mph 85% 0.00 in 0 W/m2
19:30 53.2 °F 48.8 °F 30.21 in NNE 2 mph 8 mph 85% 0.00 in 0 W/m2
19:40 53.2 °F 48.8 °F 30.21 in NNE 3 mph 12 mph 85% 0.00 in 0 W/m2
19:50 53.4 °F 49 °F 30.21 in NE 2 mph 15 mph 85% 0.00 in 0 W/m2
20:00 53.4 °F 49 °F 30.21 in North 2 mph 14 mph 85% 0.00 in 0 W/m2
20:10 53.2 °F 48.5 °F 30.22 in NNE 2 mph 11 mph 84% 0.00 in 0 W/m2
20:20 53.4 °F 48.7 °F 30.21 in North 1 mph 7 mph 84% 0.00 in 0 W/m2
20:30 53.2 °F 48.5 °F 30.21 in NNE 3 mph 12 mph 84% 0.00 in 0 W/m2
20:40 53.2 °F 48.5 °F 30.21 in North 2 mph 9 mph 84% 0.00 in 0 W/m2
20:50 53.2 °F 48.5 °F 30.22 in North 2 mph 12 mph 84% 0.00 in 0 W/m2
21:00 53.2 °F 48.5 °F 30.22 in NNE 3 mph 12 mph 84% 0.00 in 0 W/m2
21:10 53.2 °F 48.5 °F 30.22 in North 1 mph 6 mph 84% 0.00 in 0 W/m2
21:20 53.1 °F 48.4 °F 30.22 in NNW 6 mph 12 mph 84% 0.00 in 0 W/m2
21:30 52.9 °F 48.2 °F 30.22 in North 5 mph 12 mph 84% 0.00 in 0 W/m2
21:40 52.9 °F 48.5 °F 30.22 in North 5 mph 8 mph 85% 0.00 in 0 W/m2
21:50 52.7 °F 48.3 °F 30.22 in North 2 mph 8 mph 85% 0.00 in 0 W/m2
22:00 52.7 °F 48.3 °F 30.22 in North 3 mph 8 mph 85% 0.00 in 0 W/m2
22:10 52.5 °F 48.1 °F 30.22 in North 2 mph 8 mph 85% 0.00 in 0 W/m2
22:20 52.5 °F 48.1 °F 30.22 in North 5 mph 8 mph 85% 0.00 in 0 W/m2
22:30 52.3 °F 48.3 °F 30.22 in North 6 mph 11 mph 86% 0.00 in 0 W/m2
22:40 52.2 °F 48.1 °F 30.22 in North 6 mph 12 mph 86% 0.00 in 0 W/m2
22:50 52 °F 47.9 °F 30.22 in North 3 mph 8 mph 86% 0.00 in 0 W/m2
23:00 52 °F 47.9 °F 30.22 in North 5 mph 7 mph 86% 0.00 in 0 W/m2
23:10 52 °F 47.9 °F 30.22 in North 3 mph 8 mph 86% 0.00 in 0 W/m2
23:20 51.8 °F 48.4 °F 30.22 in North 5 mph 13 mph 88% 0.00 in 0 W/m2
23:30 51.6 °F 48.5 °F 30.22 in North 3 mph 8 mph 89% 0.00 in 0 W/m2
23:40 51.4 °F 48.6 °F 30.22 in North 3 mph 8 mph 90% 0.00 in 0 W/m2
23:50 51.3 °F 48.4 °F 30.22 in North 3 mph 8 mph 90% 0.00 in 0 W/m2
Knjazevac, Serbia
Compliments of Weather Underground - 2 mb